sensor_id;sensor_type;location;lat;lon;timestamp;P1;durP1;ratioP1;P2;durP2;ratioP2
24102;SDS011;12278;53.058;9.028;2023-02-28T00:03:57;6.53;;;4.70;;
24102;SDS011;12278;53.058;9.028;2023-02-28T00:07:58;9.10;;;5.20;;
24102;SDS011;12278;53.058;9.028;2023-02-28T00:11:59;6.47;;;5.03;;
24102;SDS011;12278;53.058;9.028;2023-02-28T00:16:00;8.50;;;4.43;;
24102;SDS011;12278;53.058;9.028;2023-02-28T00:20:03;7.97;;;4.43;;
24102;SDS011;12278;53.058;9.028;2023-02-28T00:28:22;8.10;;;4.30;;
24102;SDS011;12278;53.058;9.028;2023-02-28T00:32:24;5.20;;;4.23;;
24102;SDS011;12278;53.058;9.028;2023-02-28T00:36:24;4.63;;;3.90;;
24102;SDS011;12278;53.058;9.028;2023-02-28T00:44:33;6.17;;;3.53;;
24102;SDS011;12278;53.058;9.028;2023-02-28T00:48:34;5.43;;;3.67;;
24102;SDS011;12278;53.058;9.028;2023-02-28T00:52:34;7.20;;;4.10;;
24102;SDS011;12278;53.058;9.028;2023-02-28T00:56:35;7.20;;;4.03;;
24102;SDS011;12278;53.058;9.028;2023-02-28T01:00:42;6.37;;;4.10;;
24102;SDS011;12278;53.058;9.028;2023-02-28T01:04:42;8.73;;;4.37;;
24102;SDS011;12278;53.058;9.028;2023-02-28T01:08:43;5.27;;;3.80;;
24102;SDS011;12278;53.058;9.028;2023-02-28T01:12:47;4.80;;;3.60;;
24102;SDS011;12278;53.058;9.028;2023-02-28T01:16:50;5.40;;;4.00;;
24102;SDS011;12278;53.058;9.028;2023-02-28T01:20:51;5.40;;;4.27;;
24102;SDS011;12278;53.058;9.028;2023-02-28T01:24:52;7.20;;;4.03;;
24102;SDS011;12278;53.058;9.028;2023-02-28T01:28:54;6.00;;;3.40;;
24102;SDS011;12278;53.058;9.028;2023-02-28T01:32:54;5.63;;;3.80;;
24102;SDS011;12278;53.058;9.028;2023-02-28T01:36:55;8.00;;;4.10;;
24102;SDS011;12278;53.058;9.028;2023-02-28T01:40:58;6.30;;;3.83;;
24102;SDS011;12278;53.058;9.028;2023-02-28T01:45:02;5.63;;;3.43;;
24102;SDS011;12278;53.058;9.028;2023-02-28T01:49:21;5.47;;;3.63;;
24102;SDS011;12278;53.058;9.028;2023-02-28T01:53:24;4.43;;;3.30;;
24102;SDS011;12278;53.058;9.028;2023-02-28T01:57:32;6.00;;;3.97;;
24102;SDS011;12278;53.058;9.028;2023-02-28T02:01:41;5.83;;;3.80;;
24102;SDS011;12278;53.058;9.028;2023-02-28T02:05:42;7.97;;;4.53;;
24102;SDS011;12278;53.058;9.028;2023-02-28T02:19:19;7.50;;;4.87;;
24102;SDS011;12278;53.058;9.028;2023-02-28T02:41:34;9.17;;;4.87;;
24102;SDS011;12278;53.058;9.028;2023-02-28T02:49:49;6.63;;;4.47;;
24102;SDS011;12278;53.058;9.028;2023-02-28T02:58:24;5.17;;;4.47;;
24102;SDS011;12278;53.058;9.028;2023-02-28T03:02:28;7.77;;;5.57;;
24102;SDS011;12278;53.058;9.028;2023-02-28T03:06:34;5.00;;;4.20;;
24102;SDS011;12278;53.058;9.028;2023-02-28T03:10:39;5.60;;;4.17;;
24102;SDS011;12278;53.058;9.028;2023-02-28T03:14:46;5.03;;;4.10;;
24102;SDS011;12278;53.058;9.028;2023-02-28T03:23:38;5.50;;;3.60;;
24102;SDS011;12278;53.058;9.028;2023-02-28T03:32:22;3.90;;;3.50;;
24102;SDS011;12278;53.058;9.028;2023-02-28T03:40:46;6.57;;;3.97;;
24102;SDS011;12278;53.058;9.028;2023-02-28T03:44:51;5.03;;;3.97;;
24102;SDS011;12278;53.058;9.028;2023-02-28T03:49:15;5.63;;;4.17;;
24102;SDS011;12278;53.058;9.028;2023-02-28T03:53:36;6.20;;;3.80;;
24102;SDS011;12278;53.058;9.028;2023-02-28T03:57:50;4.70;;;3.33;;
24102;SDS011;12278;53.058;9.028;2023-02-28T04:02:04;5.30;;;3.53;;
24102;SDS011;12278;53.058;9.028;2023-02-28T04:06:06;4.97;;;3.77;;
24102;SDS011;12278;53.058;9.028;2023-02-28T04:10:21;4.50;;;4.00;;
24102;SDS011;12278;53.058;9.028;2023-02-28T04:14:22;4.70;;;3.77;;
24102;SDS011;12278;53.058;9.028;2023-02-28T04:18:23;5.40;;;3.90;;
24102;SDS011;12278;53.058;9.028;2023-02-28T04:22:24;4.10;;;3.73;;
24102;SDS011;12278;53.058;9.028;2023-02-28T04:26:31;6.47;;;4.27;;
24102;SDS011;12278;53.058;9.028;2023-02-28T04:30:37;8.20;;;3.90;;
24102;SDS011;12278;53.058;9.028;2023-02-28T04:34:38;4.70;;;3.87;;
24102;SDS011;12278;53.058;9.028;2023-02-28T04:38:39;10.37;;;3.57;;
24102;SDS011;12278;53.058;9.028;2023-02-28T04:42:39;5.07;;;4.57;;
24102;SDS011;12278;53.058;9.028;2023-02-28T04:46:40;5.10;;;4.37;;
24102;SDS011;12278;53.058;9.028;2023-02-28T04:50:43;4.40;;;3.77;;
24102;SDS011;12278;53.058;9.028;2023-02-28T04:54:43;5.43;;;3.47;;
24102;SDS011;12278;53.058;9.028;2023-02-28T04:58:45;9.33;;;4.80;;
24102;SDS011;12278;53.058;9.028;2023-02-28T05:02:46;6.77;;;3.80;;
24102;SDS011;12278;53.058;9.028;2023-02-28T05:06:46;5.80;;;4.00;;
24102;SDS011;12278;53.058;9.028;2023-02-28T05:10:47;4.70;;;3.93;;
24102;SDS011;12278;53.058;9.028;2023-02-28T05:14:48;4.30;;;3.83;;
24102;SDS011;12278;53.058;9.028;2023-02-28T05:18:48;5.00;;;4.50;;
24102;SDS011;12278;53.058;9.028;2023-02-28T05:22:59;4.60;;;3.63;;
24102;SDS011;12278;53.058;9.028;2023-02-28T05:27:01;5.33;;;4.27;;
24102;SDS011;12278;53.058;9.028;2023-02-28T05:31:02;5.80;;;4.40;;
24102;SDS011;12278;53.058;9.028;2023-02-28T05:35:03;5.47;;;4.23;;
24102;SDS011;12278;53.058;9.028;2023-02-28T05:39:08;8.00;;;4.73;;
24102;SDS011;12278;53.058;9.028;2023-02-28T05:47:33;4.30;;;3.90;;
24102;SDS011;12278;53.058;9.028;2023-02-28T05:51:40;5.80;;;3.70;;
24102;SDS011;12278;53.058;9.028;2023-02-28T05:55:40;4.27;;;3.87;;
24102;SDS011;12278;53.058;9.028;2023-02-28T05:59:41;7.17;;;4.80;;
24102;SDS011;12278;53.058;9.028;2023-02-28T06:07:52;7.63;;;4.50;;
24102;SDS011;12278;53.058;9.028;2023-02-28T06:11:56;5.60;;;4.27;;
24102;SDS011;12278;53.058;9.028;2023-02-28T06:16:03;4.77;;;4.27;;
24102;SDS011;12278;53.058;9.028;2023-02-28T06:20:05;5.20;;;4.60;;
24102;SDS011;12278;53.058;9.028;2023-02-28T06:24:06;5.77;;;3.97;;
24102;SDS011;12278;53.058;9.028;2023-02-28T06:28:14;6.10;;;4.60;;
24102;SDS011;12278;53.058;9.028;2023-02-28T06:32:15;5.73;;;4.40;;
24102;SDS011;12278;53.058;9.028;2023-02-28T06:36:18;9.23;;;4.97;;
24102;SDS011;12278;53.058;9.028;2023-02-28T06:40:19;8.00;;;5.13;;
24102;SDS011;12278;53.058;9.028;2023-02-28T06:44:20;8.23;;;4.80;;
24102;SDS011;12278;53.058;9.028;2023-02-28T06:48:21;6.87;;;4.50;;
24102;SDS011;12278;53.058;9.028;2023-02-28T06:52:22;5.53;;;4.93;;
24102;SDS011;12278;53.058;9.028;2023-02-28T06:56:23;7.70;;;5.00;;
24102;SDS011;12278;53.058;9.028;2023-02-28T07:00:24;8.80;;;4.70;;
24102;SDS011;12278;53.058;9.028;2023-02-28T07:04:25;11.97;;;5.27;;
24102;SDS011;12278;53.058;9.028;2023-02-28T07:08:25;4.77;;;4.37;;
24102;SDS011;12278;53.058;9.028;2023-02-28T07:12:26;7.87;;;4.90;;
24102;SDS011;12278;53.058;9.028;2023-02-28T07:16:27;6.07;;;5.27;;
24102;SDS011;12278;53.058;9.028;2023-02-28T07:20:28;7.40;;;4.60;;
24102;SDS011;12278;53.058;9.028;2023-02-28T07:24:29;5.17;;;4.63;;
24102;SDS011;12278;53.058;9.028;2023-02-28T07:28:30;7.57;;;4.73;;
24102;SDS011;12278;53.058;9.028;2023-02-28T07:32:30;5.97;;;5.37;;
24102;SDS011;12278;53.058;9.028;2023-02-28T07:36:31;5.67;;;4.60;;
24102;SDS011;12278;53.058;9.028;2023-02-28T07:40:32;6.33;;;4.77;;
24102;SDS011;12278;53.058;9.028;2023-02-28T07:44:33;9.87;;;4.90;;
24102;SDS011;12278;53.058;9.028;2023-02-28T07:48:33;7.77;;;5.27;;
24102;SDS011;12278;53.058;9.028;2023-02-28T07:52:35;7.07;;;4.67;;
24102;SDS011;12278;53.058;9.028;2023-02-28T07:56:36;7.23;;;4.63;;
24102;SDS011;12278;53.058;9.028;2023-02-28T08:00:37;6.43;;;4.90;;
24102;SDS011;12278;53.058;9.028;2023-02-28T08:04:38;9.03;;;5.00;;
24102;SDS011;12278;53.058;9.028;2023-02-28T08:08:38;11.03;;;4.83;;
24102;SDS011;12278;53.058;9.028;2023-02-28T08:12:39;7.13;;;6.00;;
24102;SDS011;12278;53.058;9.028;2023-02-28T08:16:40;6.37;;;5.13;;
24102;SDS011;12278;53.058;9.028;2023-02-28T08:20:42;6.00;;;4.63;;
24102;SDS011;12278;53.058;9.028;2023-02-28T08:24:43;6.83;;;5.27;;
24102;SDS011;12278;53.058;9.028;2023-02-28T08:28:44;7.07;;;5.53;;
24102;SDS011;12278;53.058;9.028;2023-02-28T08:32:45;6.03;;;5.43;;
24102;SDS011;12278;53.058;9.028;2023-02-28T08:36:46;9.02;;;4.60;;
24102;SDS011;12278;53.058;9.028;2023-02-28T08:40:47;5.13;;;4.33;;
24102;SDS011;12278;53.058;9.028;2023-02-28T08:44:47;4.40;;;4.03;;
24102;SDS011;12278;53.058;9.028;2023-02-28T08:48:51;7.17;;;4.83;;
24102;SDS011;12278;53.058;9.028;2023-02-28T08:52:52;6.27;;;4.43;;
24102;SDS011;12278;53.058;9.028;2023-02-28T08:56:53;10.13;;;4.60;;
24102;SDS011;12278;53.058;9.028;2023-02-28T09:00:54;6.03;;;3.83;;
24102;SDS011;12278;53.058;9.028;2023-02-28T09:04:55;3.30;;;2.97;;
24102;SDS011;12278;53.058;9.028;2023-02-28T09:08:56;4.60;;;3.43;;
24102;SDS011;12278;53.058;9.028;2023-02-28T09:12:58;2.40;;;2.20;;
24102;SDS011;12278;53.058;9.028;2023-02-28T09:16:59;4.70;;;2.90;;
24102;SDS011;12278;53.058;9.028;2023-02-28T09:20:59;2.80;;;2.47;;
24102;SDS011;12278;53.058;9.028;2023-02-28T09:25:15;2.80;;;2.57;;
24102;SDS011;12278;53.058;9.028;2023-02-28T09:29:16;4.80;;;2.80;;
24102;SDS011;12278;53.058;9.028;2023-02-28T09:33:17;3.67;;;2.47;;
24102;SDS011;12278;53.058;9.028;2023-02-28T09:37:20;2.30;;;1.83;;
24102;SDS011;12278;53.058;9.028;2023-02-28T09:41:25;2.63;;;1.33;;
24102;SDS011;12278;53.058;9.028;2023-02-28T09:45:33;0.70;;;0.63;;
24102;SDS011;12278;53.058;9.028;2023-02-28T09:49:42;1.60;;;1.00;;
24102;SDS011;12278;53.058;9.028;2023-02-28T09:53:46;1.63;;;1.40;;
24102;SDS011;12278;53.058;9.028;2023-02-28T09:57:46;3.45;;;1.30;;
24102;SDS011;12278;53.058;9.028;2023-02-28T10:02:10;1.60;;;1.50;;
24102;SDS011;12278;53.058;9.028;2023-02-28T10:06:17;1.67;;;1.58;;
24102;SDS011;12278;53.058;9.028;2023-02-28T10:10:29;2.00;;;1.75;;
24102;SDS011;12278;53.058;9.028;2023-02-28T10:14:33;1.40;;;1.30;;
24102;SDS011;12278;53.058;9.028;2023-02-28T10:18:46;2.20;;;1.65;;
24102;SDS011;12278;53.058;9.028;2023-02-28T10:22:53;2.33;;;1.65;;
24102;SDS011;12278;53.058;9.028;2023-02-28T10:31:19;1.30;;;1.10;;
24102;SDS011;12278;53.058;9.028;2023-02-28T10:35:24;2.00;;;1.48;;
24102;SDS011;12278;53.058;9.028;2023-02-28T10:43:37;3.60;;;2.20;;
24102;SDS011;12278;53.058;9.028;2023-02-28T10:48:01;3.90;;;1.50;;
24102;SDS011;12278;53.058;9.028;2023-02-28T10:52:07;1.70;;;1.42;;
24102;SDS011;12278;53.058;9.028;2023-02-28T11:00:15;2.55;;;1.80;;
24102;SDS011;12278;53.058;9.028;2023-02-28T11:08:32;5.28;;;2.05;;
24102;SDS011;12278;53.058;9.028;2023-02-28T11:12:34;2.83;;;1.50;;
24102;SDS011;12278;53.058;9.028;2023-02-28T11:16:41;3.13;;;1.58;;
24102;SDS011;12278;53.058;9.028;2023-02-28T11:20:41;1.58;;;1.45;;
24102;SDS011;12278;53.058;9.028;2023-02-28T11:24:48;2.92;;;1.80;;
24102;SDS011;12278;53.058;9.028;2023-02-28T11:29:02;2.67;;;1.63;;
24102;SDS011;12278;53.058;9.028;2023-02-28T11:37:23;1.88;;;1.30;;
24102;SDS011;12278;53.058;9.028;2023-02-28T12:02:56;1.13;;;1.10;;
24102;SDS011;12278;53.058;9.028;2023-02-28T12:15:50;1.30;;;1.10;;
24102;SDS011;12278;53.058;9.028;2023-02-28T12:29:00;1.50;;;1.27;;
24102;SDS011;12278;53.058;9.028;2023-02-28T12:33:09;2.80;;;2.03;;
24102;SDS011;12278;53.058;9.028;2023-02-28T12:37:15;1.10;;;1.00;;
24102;SDS011;12278;53.058;9.028;2023-02-28T12:41:26;1.70;;;1.30;;
24102;SDS011;12278;53.058;9.028;2023-02-28T12:49:50;1.25;;;1.15;;
24102;SDS011;12278;53.058;9.028;2023-02-28T13:10:54;3.13;;;1.20;;
24102;SDS011;12278;53.058;9.028;2023-02-28T13:15:05;2.72;;;1.70;;
24102;SDS011;12278;53.058;9.028;2023-02-28T13:19:26;0.93;;;0.88;;
24102;SDS011;12278;53.058;9.028;2023-02-28T13:23:39;1.48;;;1.02;;
24102;SDS011;12278;53.058;9.028;2023-02-28T13:27:59;1.50;;;1.10;;
24102;SDS011;12278;53.058;9.028;2023-02-28T13:40:31;2.25;;;1.60;;
24102;SDS011;12278;53.058;9.028;2023-02-28T14:06:47;2.75;;;1.60;;
24102;SDS011;12278;53.058;9.028;2023-02-28T14:10:48;1.58;;;1.30;;
24102;SDS011;12278;53.058;9.028;2023-02-28T14:18:55;1.45;;;1.33;;
24102;SDS011;12278;53.058;9.028;2023-02-28T14:23:49;2.30;;;1.75;;
24102;SDS011;12278;53.058;9.028;2023-02-28T14:36:27;0.80;;;0.77;;
24102;SDS011;12278;53.058;9.028;2023-02-28T14:40:36;2.15;;;1.75;;
24102;SDS011;12278;53.058;9.028;2023-02-28T14:44:38;1.58;;;1.20;;
24102;SDS011;12278;53.058;9.028;2023-02-28T14:48:39;1.48;;;1.38;;
24102;SDS011;12278;53.058;9.028;2023-02-28T14:52:42;3.80;;;2.03;;
24102;SDS011;12278;53.058;9.028;2023-02-28T14:56:43;1.58;;;1.38;;
24102;SDS011;12278;53.058;9.028;2023-02-28T15:00:49;1.88;;;1.45;;
24102;SDS011;12278;53.058;9.028;2023-02-28T15:04:57;1.65;;;1.15;;
24102;SDS011;12278;53.058;9.028;2023-02-28T15:09:08;1.58;;;1.48;;
24102;SDS011;12278;53.058;9.028;2023-02-28T15:13:19;1.95;;;1.20;;
24102;SDS011;12278;53.058;9.028;2023-02-28T15:17:22;1.88;;;1.55;;
24102;SDS011;12278;53.058;9.028;2023-02-28T15:21:26;1.92;;;1.38;;
24102;SDS011;12278;53.058;9.028;2023-02-28T15:25:30;1.77;;;1.40;;
24102;SDS011;12278;53.058;9.028;2023-02-28T15:29:33;3.88;;;1.77;;
24102;SDS011;12278;53.058;9.028;2023-02-28T15:33:47;1.42;;;0.85;;
24102;SDS011;12278;53.058;9.028;2023-02-28T15:37:57;2.03;;;1.38;;
24102;SDS011;12278;53.058;9.028;2023-02-28T15:42:10;2.22;;;1.70;;
24102;SDS011;12278;53.058;9.028;2023-02-28T15:46:12;1.73;;;1.25;;
24102;SDS011;12278;53.058;9.028;2023-02-28T15:50:15;3.72;;;1.67;;
24102;SDS011;12278;53.058;9.028;2023-02-28T15:54:21;2.10;;;1.27;;
24102;SDS011;12278;53.058;9.028;2023-02-28T15:58:27;2.10;;;1.63;;
24102;SDS011;12278;53.058;9.028;2023-02-28T16:02:35;1.20;;;0.98;;
24102;SDS011;12278;53.058;9.028;2023-02-28T17:11:30;5.03;;;2.77;;
24102;SDS011;12278;53.058;9.028;2023-02-28T17:15:31;3.17;;;2.60;;
24102;SDS011;12278;53.058;9.028;2023-02-28T17:19:31;4.73;;;2.90;;
24102;SDS011;12278;53.058;9.028;2023-02-28T17:23:33;3.33;;;2.33;;
24102;SDS011;12278;53.058;9.028;2023-02-28T17:27:35;2.80;;;1.67;;
24102;SDS011;12278;53.058;9.028;2023-02-28T17:31:36;2.43;;;1.90;;
24102;SDS011;12278;53.058;9.028;2023-02-28T17:35:38;1.70;;;1.50;;
24102;SDS011;12278;53.058;9.028;2023-02-28T17:39:39;4.47;;;2.10;;
24102;SDS011;12278;53.058;9.028;2023-02-28T17:43:39;1.40;;;1.30;;
24102;SDS011;12278;53.058;9.028;2023-02-28T17:47:42;2.30;;;2.10;;
24102;SDS011;12278;53.058;9.028;2023-02-28T17:51:45;2.50;;;1.80;;
24102;SDS011;12278;53.058;9.028;2023-02-28T17:55:47;3.00;;;1.93;;
24102;SDS011;12278;53.058;9.028;2023-02-28T17:59:47;4.83;;;3.83;;
24102;SDS011;12278;53.058;9.028;2023-02-28T18:03:48;8.63;;;5.83;;
24102;SDS011;12278;53.058;9.028;2023-02-28T18:07:56;6.20;;;3.70;;
24102;SDS011;12278;53.058;9.028;2023-02-28T18:11:56;4.50;;;3.07;;
24102;SDS011;12278;53.058;9.028;2023-02-28T18:15:57;5.00;;;3.30;;
24102;SDS011;12278;53.058;9.028;2023-02-28T18:19:58;3.83;;;2.90;;
24102;SDS011;12278;53.058;9.028;2023-02-28T18:23:59;6.93;;;2.97;;
24102;SDS011;12278;53.058;9.028;2023-02-28T18:27:59;6.70;;;2.77;;
24102;SDS011;12278;53.058;9.028;2023-02-28T18:32:01;6.77;;;3.33;;
24102;SDS011;12278;53.058;9.028;2023-02-28T18:36:02;5.40;;;3.27;;
24102;SDS011;12278;53.058;9.028;2023-02-28T18:40:05;12.87;;;6.07;;
24102;SDS011;12278;53.058;9.028;2023-02-28T18:44:06;14.07;;;7.77;;
24102;SDS011;12278;53.058;9.028;2023-02-28T18:48:07;19.90;;;7.97;;
24102;SDS011;12278;53.058;9.028;2023-02-28T18:52:08;15.27;;;8.10;;
24102;SDS011;12278;53.058;9.028;2023-02-28T18:56:09;18.17;;;7.90;;
24102;SDS011;12278;53.058;9.028;2023-02-28T19:00:13;16.33;;;8.83;;
24102;SDS011;12278;53.058;9.028;2023-02-28T19:04:29;19.63;;;11.87;;
24102;SDS011;12278;53.058;9.028;2023-02-28T19:08:30;24.20;;;13.07;;
24102;SDS011;12278;53.058;9.028;2023-02-28T19:12:32;23.37;;;13.93;;
24102;SDS011;12278;53.058;9.028;2023-02-28T19:16:34;24.30;;;13.03;;
24102;SDS011;12278;53.058;9.028;2023-02-28T19:20:41;22.23;;;12.90;;
24102;SDS011;12278;53.058;9.028;2023-02-28T19:24:42;20.77;;;11.40;;
24102;SDS011;12278;53.058;9.028;2023-02-28T19:28:43;18.17;;;9.93;;
24102;SDS011;12278;53.058;9.028;2023-02-28T19:32:44;17.47;;;9.40;;
24102;SDS011;12278;53.058;9.028;2023-02-28T19:36:44;12.53;;;7.90;;
24102;SDS011;12278;53.058;9.028;2023-02-28T19:41:20;13.00;;;7.20;;
24102;SDS011;12278;53.058;9.028;2023-02-28T19:45:32;7.60;;;5.47;;
24102;SDS011;12278;53.058;9.028;2023-02-28T19:49:33;6.80;;;5.63;;
24102;SDS011;12278;53.058;9.028;2023-02-28T19:53:35;9.50;;;5.40;;
24102;SDS011;12278;53.058;9.028;2023-02-28T19:57:36;12.80;;;5.30;;
24102;SDS011;12278;53.058;9.028;2023-02-28T20:01:37;8.43;;;5.83;;
24102;SDS011;12278;53.058;9.028;2023-02-28T20:05:40;9.07;;;5.50;;
24102;SDS011;12278;53.058;9.028;2023-02-28T20:09:40;7.97;;;5.20;;
24102;SDS011;12278;53.058;9.028;2023-02-28T20:13:46;6.47;;;5.50;;
24102;SDS011;12278;53.058;9.028;2023-02-28T20:17:47;7.67;;;5.00;;
24102;SDS011;12278;53.058;9.028;2023-02-28T20:21:55;8.83;;;5.07;;
24102;SDS011;12278;53.058;9.028;2023-02-28T20:25:59;7.73;;;5.70;;
24102;SDS011;12278;53.058;9.028;2023-02-28T20:34:11;6.13;;;4.60;;
24102;SDS011;12278;53.058;9.028;2023-02-28T20:38:16;9.67;;;5.60;;
24102;SDS011;12278;53.058;9.028;2023-02-28T20:42:17;7.93;;;5.37;;
24102;SDS011;12278;53.058;9.028;2023-02-28T20:46:18;7.43;;;4.80;;
24102;SDS011;12278;53.058;9.028;2023-02-28T20:50:19;6.97;;;5.10;;
24102;SDS011;12278;53.058;9.028;2023-02-28T20:54:20;8.23;;;5.97;;
24102;SDS011;12278;53.058;9.028;2023-02-28T20:58:20;10.80;;;6.07;;
24102;SDS011;12278;53.058;9.028;2023-02-28T21:02:21;6.73;;;4.73;;
24102;SDS011;12278;53.058;9.028;2023-02-28T21:10:56;6.47;;;5.17;;
24102;SDS011;12278;53.058;9.028;2023-02-28T21:19:04;7.73;;;5.07;;
24102;SDS011;12278;53.058;9.028;2023-02-28T21:27:09;7.90;;;5.53;;
24102;SDS011;12278;53.058;9.028;2023-02-28T21:31:12;8.10;;;5.57;;
24102;SDS011;12278;53.058;9.028;2023-02-28T21:35:20;8.43;;;5.37;;
24102;SDS011;12278;53.058;9.028;2023-02-28T21:39:22;8.40;;;5.57;;
24102;SDS011;12278;53.058;9.028;2023-02-28T21:43:24;11.30;;;6.47;;
24102;SDS011;12278;53.058;9.028;2023-02-28T21:47:26;7.87;;;5.07;;
24102;SDS011;12278;53.058;9.028;2023-02-28T21:51:38;7.67;;;5.00;;
24102;SDS011;12278;53.058;9.028;2023-02-28T21:55:39;7.53;;;6.03;;
24102;SDS011;12278;53.058;9.028;2023-02-28T21:59:43;7.37;;;5.50;;
24102;SDS011;12278;53.058;9.028;2023-02-28T22:03:44;8.43;;;6.27;;
24102;SDS011;12278;53.058;9.028;2023-02-28T22:07:46;8.07;;;5.83;;
24102;SDS011;12278;53.058;9.028;2023-02-28T22:11:47;7.67;;;6.17;;
24102;SDS011;12278;53.058;9.028;2023-02-28T22:15:49;9.17;;;5.63;;
24102;SDS011;12278;53.058;9.028;2023-02-28T22:19:50;8.70;;;5.90;;
24102;SDS011;12278;53.058;9.028;2023-02-28T22:23:51;6.57;;;5.30;;
24102;SDS011;12278;53.058;9.028;2023-02-28T22:27:51;9.60;;;5.77;;
24102;SDS011;12278;53.058;9.028;2023-02-28T22:36:49;10.07;;;5.70;;
24102;SDS011;12278;53.058;9.028;2023-02-28T22:40:49;9.37;;;5.47;;
24102;SDS011;12278;53.058;9.028;2023-02-28T22:44:50;6.87;;;5.60;;
24102;SDS011;12278;53.058;9.028;2023-02-28T22:49:02;8.03;;;5.13;;
24102;SDS011;12278;53.058;9.028;2023-02-28T22:53:04;6.83;;;5.70;;
24102;SDS011;12278;53.058;9.028;2023-02-28T22:57:04;8.20;;;5.77;;
24102;SDS011;12278;53.058;9.028;2023-02-28T23:01:09;9.17;;;5.40;;
24102;SDS011;12278;53.058;9.028;2023-02-28T23:05:12;6.27;;;5.00;;
24102;SDS011;12278;53.058;9.028;2023-02-28T23:09:14;7.77;;;5.07;;
24102;SDS011;12278;53.058;9.028;2023-02-28T23:13:17;6.53;;;5.17;;
24102;SDS011;12278;53.058;9.028;2023-02-28T23:17:19;7.50;;;5.30;;
24102;SDS011;12278;53.058;9.028;2023-02-28T23:21:19;5.30;;;4.80;;
24102;SDS011;12278;53.058;9.028;2023-02-28T23:25:20;7.00;;;5.00;;
24102;SDS011;12278;53.058;9.028;2023-02-28T23:29:38;6.50;;;5.10;;
24102;SDS011;12278;53.058;9.028;2023-02-28T23:33:39;7.70;;;5.50;;
24102;SDS011;12278;53.058;9.028;2023-02-28T23:37:40;6.97;;;5.07;;
24102;SDS011;12278;53.058;9.028;2023-02-28T23:41:41;6.23;;;5.23;;
24102;SDS011;12278;53.058;9.028;2023-02-28T23:45:44;5.63;;;5.10;;
24102;SDS011;12278;53.058;9.028;2023-02-28T23:49:54;7.50;;;4.77;;
24102;SDS011;12278;53.058;9.028;2023-02-28T23:53:54;5.73;;;4.90;;
24102;SDS011;12278;53.058;9.028;2023-02-28T23:57:55;6.40;;;4.53;;
